sensor_id;sensor_type;location;lat;lon;timestamp;pressure;altitude;pressure_sealevel;temperature;humidity
6853;BME280;3465;42.144;24.722;2023-07-13T00:00:41;149530.34;;;26.37;81.88
6853;BME280;3465;42.144;24.722;2023-07-13T00:03:06;149512.56;;;26.30;81.80
6853;BME280;3465;42.144;24.722;2023-07-13T00:05:32;149529.06;;;26.37;81.90
6853;BME280;3465;42.144;24.722;2023-07-13T00:07:57;149546.84;;;26.44;81.43
6853;BME280;3465;42.144;24.722;2023-07-13T00:10:23;149508.78;;;26.29;81.90
6853;BME280;3465;42.144;24.722;2023-07-13T00:12:48;149494.84;;;26.23;81.90
6853;BME280;3465;42.144;24.722;2023-07-13T00:15:20;149478.38;;;26.17;82.07
6853;BME280;3465;42.144;24.722;2023-07-13T00:17:49;149491.06;;;26.22;81.78
6853;BME280;3465;42.144;24.722;2023-07-13T00:20:14;149502.47;;;26.26;81.42
6853;BME280;3465;42.144;24.722;2023-07-13T00:22:40;149488.50;;;26.21;81.53
6853;BME280;3465;42.144;24.722;2023-07-13T00:25:05;149494.84;;;26.23;81.39
6853;BME280;3465;42.144;24.722;2023-07-13T00:27:31;149507.53;;;26.28;80.81
6853;BME280;3465;42.144;24.722;2023-07-13T00:30:00;149504.97;;;26.27;80.40
6853;BME280;3465;42.144;24.722;2023-07-13T00:32:25;149494.84;;;26.23;79.96
6853;BME280;3465;42.144;24.722;2023-07-13T00:34:52;149447.91;;;26.05;80.72
6853;BME280;3465;42.144;24.722;2023-07-13T00:37:17;149413.66;;;25.91;81.16
6853;BME280;3465;42.144;24.722;2023-07-13T00:39:42;149384.47;;;25.80;82.15
6853;BME280;3465;42.144;24.722;2023-07-13T00:42:08;149393.38;;;25.83;81.54
6853;BME280;3465;42.144;24.722;2023-07-13T00:44:34;149375.59;;;25.76;81.95
6853;BME280;3465;42.144;24.722;2023-07-13T00:46:59;149384.47;;;25.80;81.53
6853;BME280;3465;42.144;24.722;2023-07-13T00:49:26;149360.41;;;25.70;82.56
6853;BME280;3465;42.144;24.722;2023-07-13T00:51:58;149317.31;;;25.53;82.65
6853;BME280;3465;42.144;24.722;2023-07-13T00:54:27;149355.31;;;25.68;82.00
6853;BME280;3465;42.144;24.722;2023-07-13T00:56:59;149359.13;;;25.70;82.22
6853;BME280;3465;42.144;24.722;2023-07-13T00:59:25;149347.72;;;25.65;81.76
6853;BME280;3465;42.144;24.722;2023-07-13T01:01:51;149361.69;;;25.71;81.16
6853;BME280;3465;42.144;24.722;2023-07-13T01:04:18;149371.78;;;25.75;81.36
6853;BME280;3465;42.144;24.722;2023-07-13T01:06:45;149376.88;;;25.77;81.23
6853;BME280;3465;42.144;24.722;2023-07-13T01:09:14;149331.22;;;25.59;81.43
6853;BME280;3465;42.144;24.722;2023-07-13T01:11:41;149350.22;;;25.66;81.30
6853;BME280;3465;42.144;24.722;2023-07-13T01:14:08;149322.34;;;25.55;81.03
6853;BME280;3465;42.144;24.722;2023-07-13T01:16:35;149286.88;;;25.41;81.72
6853;BME280;3465;42.144;24.722;2023-07-13T01:19:03;149309.66;;;25.50;81.93
6853;BME280;3465;42.144;24.722;2023-07-13T01:21:33;149309.66;;;25.50;81.99
6853;BME280;3465;42.144;24.722;2023-07-13T01:23:59;149307.16;;;25.49;81.49
6853;BME280;3465;42.144;24.722;2023-07-13T01:26:25;149291.94;;;25.43;80.79
6853;BME280;3465;42.144;24.722;2023-07-13T01:28:51;149281.78;;;25.39;80.69
6853;BME280;3465;42.144;24.722;2023-07-13T01:31:16;149276.75;;;25.37;80.48
6853;BME280;3465;42.144;24.722;2023-07-13T01:33:42;149232.31;;;25.19;82.13
6853;BME280;3465;42.144;24.722;2023-07-13T01:36:09;149224.72;;;25.16;81.35
6853;BME280;3465;42.144;24.722;2023-07-13T01:38:35;149253.88;;;25.28;81.21
6853;BME280;3465;42.144;24.722;2023-07-13T01:41:02;149257.66;;;25.29;80.85
6853;BME280;3465;42.144;24.722;2023-07-13T01:43:28;149250.06;;;25.26;81.65
6853;BME280;3465;42.144;24.722;2023-07-13T01:45:53;149227.28;;;25.17;82.59
6853;BME280;3465;42.144;24.722;2023-07-13T01:48:19;149218.41;;;25.14;82.70
6853;BME280;3465;42.144;24.722;2023-07-13T01:50:45;149187.97;;;25.02;84.22
6853;BME280;3465;42.144;24.722;2023-07-13T01:53:10;149162.66;;;24.92;84.02
6853;BME280;3465;42.144;24.722;2023-07-13T01:55:37;149144.91;;;24.85;83.49
6853;BME280;3465;42.144;24.722;2023-07-13T01:58:03;149187.97;;;25.02;83.00
6853;BME280;3465;42.144;24.722;2023-07-13T02:00:28;149098.00;;;24.66;83.09
6853;BME280;3465;42.144;24.722;2023-07-13T02:02:54;149180.38;;;24.99;83.54
6853;BME280;3465;42.144;24.722;2023-07-13T02:05:19;149177.84;;;24.98;83.89
6853;BME280;3465;42.144;24.722;2023-07-13T02:07:45;149180.38;;;24.99;83.67
6853;BME280;3465;42.144;24.722;2023-07-13T02:10:12;149185.44;;;25.01;84.70
6853;BME280;3465;42.144;24.722;2023-07-13T02:12:38;149193.03;;;25.04;85.35
6853;BME280;3465;42.144;24.722;2023-07-13T02:15:04;149176.56;;;24.97;84.62
6853;BME280;3465;42.144;24.722;2023-07-13T02:17:31;149148.69;;;24.86;85.24
6853;BME280;3465;42.144;24.722;2023-07-13T02:19:57;149157.56;;;24.90;86.55
6853;BME280;3465;42.144;24.722;2023-07-13T02:22:22;149151.22;;;24.87;86.11
6853;BME280;3465;42.144;24.722;2023-07-13T02:24:49;149147.41;;;24.86;85.89
6853;BME280;3465;42.144;24.722;2023-07-13T02:27:14;149143.63;;;24.84;85.86
6853;BME280;3465;42.144;24.722;2023-07-13T02:29:39;149136.03;;;24.81;86.11
6853;BME280;3465;42.144;24.722;2023-07-13T02:32:05;149134.78;;;24.81;85.46
6853;BME280;3465;42.144;24.722;2023-07-13T02:34:31;149113.25;;;24.72;85.73
6853;BME280;3465;42.144;24.722;2023-07-13T02:36:56;149106.88;;;24.70;85.51
6853;BME280;3465;42.144;24.722;2023-07-13T02:39:22;149098.00;;;24.66;85.74
6853;BME280;3465;42.144;24.722;2023-07-13T02:41:47;149068.84;;;24.55;86.50
6853;BME280;3465;42.144;24.722;2023-07-13T02:44:13;149073.94;;;24.57;86.07
6853;BME280;3465;42.144;24.722;2023-07-13T02:46:39;149095.44;;;24.65;86.96
6853;BME280;3465;42.144;24.722;2023-07-13T02:49:05;149101.84;;;24.68;86.14
6853;BME280;3465;42.144;24.722;2023-07-13T02:51:31;149091.66;;;24.64;85.54
6853;BME280;3465;42.144;24.722;2023-07-13T02:54:02;149066.28;;;24.54;85.54
6853;BME280;3465;42.144;24.722;2023-07-13T02:56:28;149049.81;;;24.47;86.22
6853;BME280;3465;42.144;24.722;2023-07-13T02:58:54;149048.59;;;24.47;85.26
6853;BME280;3465;42.144;24.722;2023-07-13T03:01:20;149030.84;;;24.40;85.34
6853;BME280;3465;42.144;24.722;2023-07-13T03:03:47;149051.09;;;24.48;85.35
6853;BME280;3465;42.144;24.722;2023-07-13T03:06:14;149053.66;;;24.49;86.06
6853;BME280;3465;42.144;24.722;2023-07-13T03:08:40;149054.91;;;24.49;86.40
6853;BME280;3465;42.144;24.722;2023-07-13T03:11:08;149051.09;;;24.48;86.03
6853;BME280;3465;42.144;24.722;2023-07-13T03:13:34;148994.13;;;24.25;86.81
6853;BME280;3465;42.144;24.722;2023-07-13T03:16:00;148972.63;;;24.17;87.82
6853;BME280;3465;42.144;24.722;2023-07-13T03:18:27;148959.94;;;24.12;87.91
6853;BME280;3465;42.144;24.722;2023-07-13T03:20:53;148976.41;;;24.18;87.18
6853;BME280;3465;42.144;24.722;2023-07-13T03:23:19;148952.38;;;24.09;88.10
6853;BME280;3465;42.144;24.722;2023-07-13T03:25:45;148961.19;;;24.12;88.69
6853;BME280;3465;42.144;24.722;2023-07-13T03:28:11;148977.66;;;24.19;88.41
6853;BME280;3465;42.144;24.722;2023-07-13T03:30:37;148968.78;;;24.15;88.16
6853;BME280;3465;42.144;24.722;2023-07-13T03:33:02;148984.00;;;24.21;87.77
6853;BME280;3465;42.144;24.722;2023-07-13T03:35:28;149015.66;;;24.34;87.34
6853;BME280;3465;42.144;24.722;2023-07-13T03:37:53;149019.47;;;24.35;87.09
6853;BME280;3465;42.144;24.722;2023-07-13T03:40:19;149033.41;;;24.41;85.61
6853;BME280;3465;42.144;24.722;2023-07-13T03:42:44;149000.47;;;24.28;84.38
6853;BME280;3465;42.144;24.722;2023-07-13T03:45:09;148954.88;;;24.10;84.33
6853;BME280;3465;42.144;24.722;2023-07-13T03:47:35;148982.72;;;24.21;85.09
6853;BME280;3465;42.144;24.722;2023-07-13T03:50:00;148994.13;;;24.25;84.67
6853;BME280;3465;42.144;24.722;2023-07-13T03:52:26;148984.00;;;24.21;85.87
6853;BME280;3465;42.144;24.722;2023-07-13T03:54:51;148986.53;;;24.22;86.17
6853;BME280;3465;42.144;24.722;2023-07-13T03:57:18;149019.47;;;24.35;85.65
6853;BME280;3465;42.144;24.722;2023-07-13T03:59:43;149038.44;;;24.43;85.12
6853;BME280;3465;42.144;24.722;2023-07-13T04:02:09;149025.75;;;24.38;85.91
6853;BME280;3465;42.144;24.722;2023-07-13T04:04:35;149033.41;;;24.41;86.36
6853;BME280;3465;42.144;24.722;2023-07-13T04:07:00;149034.66;;;24.41;86.30
6853;BME280;3465;42.144;24.722;2023-07-13T04:09:25;149038.44;;;24.43;85.29
6853;BME280;3465;42.144;24.722;2023-07-13T04:11:51;149041.00;;;24.44;84.40
6853;BME280;3465;42.144;24.722;2023-07-13T04:14:17;149047.31;;;24.46;84.16
6853;BME280;3465;42.144;24.722;2023-07-13T04:16:42;149041.00;;;24.44;84.40
6853;BME280;3465;42.144;24.722;2023-07-13T04:19:09;149048.59;;;24.47;83.91
6853;BME280;3465;42.144;24.722;2023-07-13T04:21:36;149013.16;;;24.33;84.65
6853;BME280;3465;42.144;24.722;2023-07-13T04:24:02;149042.22;;;24.44;85.06
6853;BME280;3465;42.144;24.722;2023-07-13T04:26:28;149032.13;;;24.40;85.90
6853;BME280;3465;42.144;24.722;2023-07-13T04:28:54;149039.72;;;24.43;86.06
6853;BME280;3465;42.144;24.722;2023-07-13T04:31:19;149047.31;;;24.46;85.71
6853;BME280;3465;42.144;24.722;2023-07-13T04:33:45;149067.56;;;24.54;85.17
6853;BME280;3465;42.144;24.722;2023-07-13T04:36:10;149081.53;;;24.60;85.63
6853;BME280;3465;42.144;24.722;2023-07-13T04:38:36;149085.31;;;24.61;86.39
6853;BME280;3465;42.144;24.722;2023-07-13T04:41:04;149042.22;;;24.44;86.63
6853;BME280;3465;42.144;24.722;2023-07-13T04:43:31;149066.28;;;24.54;86.69
6853;BME280;3465;42.144;24.722;2023-07-13T04:46:02;149076.47;;;24.58;87.19
6853;BME280;3465;42.144;24.722;2023-07-13T04:48:27;149081.53;;;24.60;88.04
6853;BME280;3465;42.144;24.722;2023-07-13T04:50:57;149109.44;;;24.71;87.44
6853;BME280;3465;42.144;24.722;2023-07-13T04:53:23;149142.38;;;24.84;87.08
6853;BME280;3465;42.144;24.722;2023-07-13T04:55:48;149161.38;;;24.91;86.82
6853;BME280;3465;42.144;24.722;2023-07-13T04:58:14;149187.97;;;25.02;86.21
6853;BME280;3465;42.144;24.722;2023-07-13T05:00:39;149190.53;;;25.03;85.18
6853;BME280;3465;42.144;24.722;2023-07-13T05:03:05;149210.81;;;25.11;83.94
6853;BME280;3465;42.144;24.722;2023-07-13T05:05:30;149231.06;;;25.19;83.67
6853;BME280;3465;42.144;24.722;2023-07-13T05:07:56;149224.72;;;25.16;83.66
6853;BME280;3465;42.144;24.722;2023-07-13T05:10:21;149226.00;;;25.17;82.99
6853;BME280;3465;42.144;24.722;2023-07-13T05:12:47;149281.78;;;25.39;82.65
6853;BME280;3465;42.144;24.722;2023-07-13T05:15:13;149319.84;;;25.54;81.65
6853;BME280;3465;42.144;24.722;2023-07-13T05:17:38;149303.34;;;25.48;81.55
6853;BME280;3465;42.144;24.722;2023-07-13T05:20:05;149328.72;;;25.58;81.55
6853;BME280;3465;42.144;24.722;2023-07-13T05:22:31;149340.13;;;25.62;81.34
6853;BME280;3465;42.144;24.722;2023-07-13T05:24:56;149337.59;;;25.61;80.92
6853;BME280;3465;42.144;24.722;2023-07-13T05:27:22;149355.31;;;25.68;80.97
6853;BME280;3465;42.144;24.722;2023-07-13T05:29:48;149374.31;;;25.76;80.42
6853;BME280;3465;42.144;24.722;2023-07-13T05:32:14;149385.75;;;25.80;80.49
6853;BME280;3465;42.144;24.722;2023-07-13T05:34:39;149419.97;;;25.94;79.90
6853;BME280;3465;42.144;24.722;2023-07-13T05:37:05;149444.09;;;26.03;79.71
6853;BME280;3465;42.144;24.722;2023-07-13T05:39:30;149480.88;;;26.18;79.01
6853;BME280;3465;42.144;24.722;2023-07-13T05:41:55;149499.94;;;26.25;79.23
6853;BME280;3465;42.144;24.722;2023-07-13T05:44:21;149512.56;;;26.30;78.43
6853;BME280;3465;42.144;24.722;2023-07-13T05:46:46;149540.53;;;26.41;77.61
6853;BME280;3465;42.144;24.722;2023-07-13T05:49:12;149586.16;;;26.59;76.32
6853;BME280;3465;42.144;24.722;2023-07-13T05:51:37;149587.44;;;26.60;75.67
6853;BME280;3465;42.144;24.722;2023-07-13T05:54:02;149619.19;;;26.73;75.89
6853;BME280;3465;42.144;24.722;2023-07-13T05:56:28;149644.56;;;26.83;75.42
6853;BME280;3465;42.144;24.722;2023-07-13T05:58:54;149662.34;;;26.90;74.68
6853;BME280;3465;42.144;24.722;2023-07-13T06:01:19;149692.78;;;27.02;72.80
6853;BME280;3465;42.144;24.722;2023-07-13T06:03:46;149714.38;;;27.10;72.22
6853;BME280;3465;42.144;24.722;2023-07-13T06:06:12;149727.06;;;27.15;71.97
6853;BME280;3465;42.144;24.722;2023-07-13T06:08:38;149725.78;;;27.15;70.72
6853;BME280;3465;42.144;24.722;2023-07-13T06:11:23;149756.25;;;27.27;70.96
6853;BME280;3465;42.144;24.722;2023-07-13T06:13:50;149757.56;;;27.27;69.37
6853;BME280;3465;42.144;24.722;2023-07-13T06:16:16;149809.56;;;27.48;68.91
6853;BME280;3465;42.144;24.722;2023-07-13T06:18:42;149852.78;;;27.65;68.82
6853;BME280;3465;42.144;24.722;2023-07-13T06:21:08;149887.03;;;27.78;67.44
6853;BME280;3465;42.144;24.722;2023-07-13T06:23:33;149926.47;;;27.94;67.07
6853;BME280;3465;42.144;24.722;2023-07-13T06:25:59;149977.22;;;28.14;65.59
6853;BME280;3465;42.144;24.722;2023-07-13T06:28:24;149995.03;;;28.21;64.57
6853;BME280;3465;42.144;24.722;2023-07-13T06:30:50;150045.81;;;28.41;62.82
6853;BME280;3465;42.144;24.722;2023-07-13T06:33:15;150081.41;;;28.55;62.59
6853;BME280;3465;42.144;24.722;2023-07-13T06:35:40;150124.63;;;28.72;60.11
6853;BME280;3465;42.144;24.722;2023-07-13T06:38:06;150132.25;;;28.75;60.11
6853;BME280;3465;42.144;24.722;2023-07-13T06:40:31;150199.56;;;29.02;59.31
6853;BME280;3465;42.144;24.722;2023-07-13T06:42:57;150222.53;;;29.11;59.24
6853;BME280;3465;42.144;24.722;2023-07-13T06:45:23;150316.56;;;29.48;57.85
6853;BME280;3465;42.144;24.722;2023-07-13T06:47:48;150381.47;;;29.74;57.10
6853;BME280;3465;42.144;24.722;2023-07-13T06:50:14;150425.94;;;29.91;56.60
6853;BME280;3465;42.144;24.722;2023-07-13T06:52:40;150503.56;;;30.22;56.09
6853;BME280;3465;42.144;24.722;2023-07-13T06:55:05;150553.13;;;30.41;55.22
6853;BME280;3465;42.144;24.722;2023-07-13T06:57:31;150577.34;;;30.51;54.56
6853;BME280;3465;42.144;24.722;2023-07-13T06:59:56;150621.88;;;30.68;54.05
6853;BME280;3465;42.144;24.722;2023-07-13T07:02:22;150686.81;;;30.94;52.62
6853;BME280;3465;42.144;24.722;2023-07-13T07:04:47;150791.19;;;31.35;51.38
6853;BME280;3465;42.144;24.722;2023-07-13T07:07:13;150885.38;;;31.72;49.80
6853;BME280;3465;42.144;24.722;2023-07-13T07:09:38;151054.81;;;32.39;48.16
6853;BME280;3465;42.144;24.722;2023-07-13T07:12:04;151220.50;;;33.04;45.51
6853;BME280;3465;42.144;24.722;2023-07-13T07:14:30;151401.47;;;33.76;44.40
6853;BME280;3465;42.144;24.722;2023-07-13T07:16:56;151600.53;;;34.54;40.93
6853;BME280;3465;42.144;24.722;2023-07-13T07:19:21;151858.28;;;35.55;39.17
6853;BME280;3465;42.144;24.722;2023-07-13T07:21:46;152053.75;;;36.32;38.00
6853;BME280;3465;42.144;24.722;2023-07-13T07:24:12;152122.69;;;36.59;37.52
6853;BME280;3465;42.144;24.722;2023-07-13T07:26:37;152258.13;;;37.12;36.03
6853;BME280;3465;42.144;24.722;2023-07-13T07:29:03;152416.66;;;37.75;34.88
6853;BME280;3465;42.144;24.722;2023-07-13T07:31:28;152455.00;;;37.90;34.64
6853;BME280;3465;42.144;24.722;2023-07-13T07:33:54;152516.41;;;38.14;33.71
6853;BME280;3465;42.144;24.722;2023-07-13T07:36:19;152318.19;;;37.36;34.17
6853;BME280;3465;42.144;24.722;2023-07-13T07:38:45;152411.53;;;37.73;34.16
6853;BME280;3465;42.144;24.722;2023-07-13T07:41:12;152521.47;;;38.16;33.70
6853;BME280;3465;42.144;24.722;2023-07-13T07:43:37;152787.53;;;39.20;32.07
6853;BME280;3465;42.144;24.722;2023-07-13T07:46:03;152906.56;;;39.67;30.87
6853;BME280;3465;42.144;24.722;2023-07-13T07:48:29;153046.06;;;40.22;31.13
6853;BME280;3465;42.144;24.722;2023-07-13T07:50:54;153121.66;;;40.51;30.58
6853;BME280;3465;42.144;24.722;2023-07-13T07:53:19;153289.47;;;41.17;29.73
6853;BME280;3465;42.144;24.722;2023-07-13T07:55:45;153415.00;;;41.66;28.49
6853;BME280;3465;42.144;24.722;2023-07-13T07:58:10;153522.66;;;42.08;28.14
6853;BME280;3465;42.144;24.722;2023-07-13T08:00:36;153491.88;;;41.96;28.09
6853;BME280;3465;42.144;24.722;2023-07-13T08:03:02;153454.69;;;41.82;27.77
6853;BME280;3465;42.144;24.722;2023-07-13T08:05:28;153572.63;;;42.28;27.69
6853;BME280;3465;42.144;24.722;2023-07-13T08:07:53;153679.03;;;42.70;27.34
6853;BME280;3465;42.144;24.722;2023-07-13T08:10:19;153857.28;;;43.39;26.13
6853;BME280;3465;42.144;24.722;2023-07-13T08:12:44;154007.44;;;43.98;25.13
6853;BME280;3465;42.144;24.722;2023-07-13T08:15:13;154146.00;;;44.52;25.04
6853;BME280;3465;42.144;24.722;2023-07-13T08:17:39;154414.31;;;45.57;24.37
6853;BME280;3465;42.144;24.722;2023-07-13T08:20:05;154518.31;;;45.98;23.09
6853;BME280;3465;42.144;24.722;2023-07-13T08:22:30;154490.09;;;45.87;22.55
6853;BME280;3465;42.144;24.722;2023-07-13T08:24:56;154472.13;;;45.80;22.45
6853;BME280;3465;42.144;24.722;2023-07-13T08:27:23;154398.88;;;45.51;23.31
6853;BME280;3465;42.144;24.722;2023-07-13T08:29:49;154212.75;;;44.78;24.59
6853;BME280;3465;42.144;24.722;2023-07-13T08:32:15;154455.41;;;45.73;24.09
6853;BME280;3465;42.144;24.722;2023-07-13T08:34:40;154572.28;;;46.19;22.37
6853;BME280;3465;42.144;24.722;2023-07-13T08:37:06;154681.50;;;46.62;22.50
6853;BME280;3465;42.144;24.722;2023-07-13T08:39:33;154851.13;;;47.28;21.91
6853;BME280;3465;42.144;24.722;2023-07-13T08:42:05;154599.28;;;46.29;22.34
6853;BME280;3465;42.144;24.722;2023-07-13T08:47:14;154179.34;;;44.65;23.21
6853;BME280;3465;42.144;24.722;2023-07-13T08:49:41;154230.69;;;44.85;23.71
6853;BME280;3465;42.144;24.722;2023-07-13T08:55:05;154848.56;;;47.27;21.32
6853;BME280;3465;42.144;24.722;2023-07-13T08:57:35;155027.28;;;47.97;20.32
6853;BME280;3465;42.144;24.722;2023-07-13T09:00:01;155124.97;;;48.35;20.37
6853;BME280;3465;42.144;24.722;2023-07-13T09:02:34;155178.97;;;48.56;20.50
6853;BME280;3465;42.144;24.722;2023-07-13T09:05:11;155086.34;;;48.20;19.67
6853;BME280;3465;42.144;24.722;2023-07-13T09:13:00;154712.31;;;46.74;20.67
6853;BME280;3465;42.144;24.722;2023-07-13T09:15:39;154923.06;;;47.56;19.94
6853;BME280;3465;42.144;24.722;2023-07-13T09:18:26;154802.25;;;47.09;19.59
6853;BME280;3465;42.144;24.722;2023-07-13T09:21:12;154747.00;;;46.87;19.80
6853;BME280;3465;42.144;24.722;2023-07-13T09:23:38;154849.88;;;47.27;20.08
6853;BME280;3465;42.144;24.722;2023-07-13T09:26:11;155090.19;;;48.21;19.14
6853;BME280;3465;42.144;24.722;2023-07-13T09:28:45;155094.06;;;48.23;18.14
6853;BME280;3465;42.144;24.722;2023-07-13T09:31:19;155279.25;;;48.95;18.50
6853;BME280;3465;42.144;24.722;2023-07-13T09:33:47;155315.34;;;49.09;18.41
6853;BME280;3465;42.144;24.722;2023-07-13T09:38:45;155243.28;;;48.81;18.89
6853;BME280;3465;42.144;24.722;2023-07-13T09:44:09;155119.81;;;48.33;18.34
6853;BME280;3465;42.144;24.722;2023-07-13T09:46:36;155054.22;;;48.07;18.29
6853;BME280;3465;42.144;24.722;2023-07-13T09:49:02;155189.22;;;48.60;18.91
6853;BME280;3465;42.144;24.722;2023-07-13T09:51:27;155383.50;;;49.36;18.35
6853;BME280;3465;42.144;24.722;2023-07-13T09:53:53;155465.88;;;49.68;17.65
6853;BME280;3465;42.144;24.722;2023-07-13T09:56:25;155433.69;;;49.55;17.08
6853;BME280;3465;42.144;24.722;2023-07-13T09:58:51;155137.84;;;48.40;18.25
6853;BME280;3465;42.144;24.722;2023-07-13T10:01:32;155016.91;;;47.93;17.59
6853;BME280;3465;42.144;24.722;2023-07-13T10:03:58;154986.09;;;47.81;17.12
6853;BME280;3465;42.144;24.722;2023-07-13T10:06:23;154812.56;;;47.13;18.23
6853;BME280;3465;42.144;24.722;2023-07-13T10:08:51;154988.66;;;47.82;17.97
6853;BME280;3465;42.144;24.722;2023-07-13T10:11:27;155158.41;;;48.48;18.02
6853;BME280;3465;42.144;24.722;2023-07-13T10:14:00;155284.41;;;48.97;16.85
6853;BME280;3465;42.144;24.722;2023-07-13T10:16:32;155284.41;;;48.97;17.12
6853;BME280;3465;42.144;24.722;2023-07-13T10:18:59;154946.25;;;47.65;17.26
6853;BME280;3465;42.144;24.722;2023-07-13T10:21:33;154844.72;;;47.25;16.85
6853;BME280;3465;42.144;24.722;2023-07-13T10:24:36;155108.22;;;48.28;17.51
6853;BME280;3465;42.144;24.722;2023-07-13T10:29:34;154987.34;;;47.81;18.02
6853;BME280;3465;42.144;24.722;2023-07-13T10:32:01;155112.13;;;48.30;17.68
6853;BME280;3465;42.144;24.722;2023-07-13T10:34:27;155141.69;;;48.41;17.44
6853;BME280;3465;42.144;24.722;2023-07-13T10:36:52;155105.66;;;48.27;17.68
6853;BME280;3465;42.144;24.722;2023-07-13T10:39:21;155316.59;;;49.10;16.79
6853;BME280;3465;42.144;24.722;2023-07-13T10:41:58;155438.84;;;49.57;16.62
6853;BME280;3465;42.144;24.722;2023-07-13T10:44:28;155362.91;;;49.28;16.71
6853;BME280;3465;42.144;24.722;2023-07-13T10:47:04;155285.72;;;48.98;16.75
6853;BME280;3465;42.144;24.722;2023-07-13T10:49:32;155096.66;;;48.24;17.08
6853;BME280;3465;42.144;24.722;2023-07-13T10:51:58;154957.84;;;47.70;17.39
6853;BME280;3465;42.144;24.722;2023-07-13T10:54:31;155037.53;;;48.01;17.61
6853;BME280;3465;42.144;24.722;2023-07-13T10:57:16;155289.56;;;48.99;16.84
6853;BME280;3465;42.144;24.722;2023-07-13T10:59:49;155168.66;;;48.52;16.50
6853;BME280;3465;42.144;24.722;2023-07-13T11:02:33;155206.00;;;48.66;16.59
6853;BME280;3465;42.144;24.722;2023-07-13T11:05:20;155305.03;;;49.05;17.00
6853;BME280;3465;42.144;24.722;2023-07-13T11:08:16;155261.28;;;48.88;16.48
6853;BME280;3465;42.144;24.722;2023-07-13T11:10:55;155276.69;;;48.94;16.33
6853;BME280;3465;42.144;24.722;2023-07-13T11:18:39;155343.63;;;49.20;15.43
6853;BME280;3465;42.144;24.722;2023-07-13T11:23:45;155382.22;;;49.35;15.30
6853;BME280;3465;42.144;24.722;2023-07-13T11:31:56;155146.84;;;48.43;16.51
6853;BME280;3465;42.144;24.722;2023-07-13T11:34:34;155110.75;;;48.29;16.32
6853;BME280;3465;42.144;24.722;2023-07-13T11:37:02;154853.72;;;47.29;16.90
6853;BME280;3465;42.144;24.722;2023-07-13T11:39:39;154788.16;;;47.03;17.10
6853;BME280;3465;42.144;24.722;2023-07-13T11:42:10;154732.84;;;46.82;17.54
6853;BME280;3465;42.144;24.722;2023-07-13T11:44:42;154698.22;;;46.68;17.88
6853;BME280;3465;42.144;24.722;2023-07-13T11:47:11;154700.75;;;46.69;17.47
6853;BME280;3465;42.144;24.722;2023-07-13T11:49:45;154801.00;;;47.08;16.67
6853;BME280;3465;42.144;24.722;2023-07-13T11:52:16;154650.63;;;46.50;16.81
6853;BME280;3465;42.144;24.722;2023-07-13T11:54:54;154549.16;;;46.10;17.23
6853;BME280;3465;42.144;24.722;2023-07-13T11:57:30;154555.53;;;46.12;17.53
6853;BME280;3465;42.144;24.722;2023-07-13T12:00:02;154464.41;;;45.77;17.59
6853;BME280;3465;42.144;24.722;2023-07-13T12:02:35;154493.94;;;45.88;17.82
6853;BME280;3465;42.144;24.722;2023-07-13T12:05:03;154353.94;;;45.34;17.68
6853;BME280;3465;42.144;24.722;2023-07-13T12:07:32;154306.47;;;45.15;17.51
6853;BME280;3465;42.144;24.722;2023-07-13T12:10:17;154411.72;;;45.56;18.35
6853;BME280;3465;42.144;24.722;2023-07-13T12:13:03;154379.66;;;45.44;17.82
6853;BME280;3465;42.144;24.722;2023-07-13T12:15:45;154348.81;;;45.32;17.86
6853;BME280;3465;42.144;24.722;2023-07-13T12:18:18;154258.97;;;44.96;18.42
6853;BME280;3465;42.144;24.722;2023-07-13T12:20:45;154309.00;;;45.16;18.45
6853;BME280;3465;42.144;24.722;2023-07-13T12:23:29;154311.59;;;45.17;17.88
6853;BME280;3465;42.144;24.722;2023-07-13T12:25:56;154456.66;;;45.74;17.94
6853;BME280;3465;42.144;24.722;2023-07-13T12:28:34;154411.72;;;45.56;17.43
6853;BME280;3465;42.144;24.722;2023-07-13T12:31:06;154522.16;;;45.99;17.82
6853;BME280;3465;42.144;24.722;2023-07-13T12:33:33;154660.97;;;46.54;17.82
6853;BME280;3465;42.144;24.722;2023-07-13T12:36:03;154605.69;;;46.32;16.97
6853;BME280;3465;42.144;24.722;2023-07-13T12:38:31;154368.06;;;45.39;17.87
6853;BME280;3465;42.144;24.722;2023-07-13T12:40:58;154246.13;;;44.91;18.19
6853;BME280;3465;42.144;24.722;2023-07-13T12:43:24;154230.69;;;44.85;18.41
6853;BME280;3465;42.144;24.722;2023-07-13T12:48:41;154033.09;;;44.08;19.12
6853;BME280;3465;42.144;24.722;2023-07-13T12:51:13;154002.28;;;43.96;19.42
6853;BME280;3465;42.144;24.722;2023-07-13T12:53:41;153809.88;;;43.21;19.77
6853;BME280;3465;42.144;24.722;2023-07-13T12:56:17;153785.47;;;43.11;20.12
6853;BME280;3465;42.144;24.722;2023-07-13T12:58:44;153750.84;;;42.98;20.79
6853;BME280;3465;42.144;24.722;2023-07-13T13:01:13;153794.50;;;43.15;20.79
6853;BME280;3465;42.144;24.722;2023-07-13T13:03:49;153704.72;;;42.80;20.34
6853;BME280;3465;42.144;24.722;2023-07-13T13:08:55;153621.38;;;42.47;21.45
6853;BME280;3465;42.144;24.722;2023-07-13T13:11:22;153581.63;;;42.31;20.87
6853;BME280;3465;42.144;24.722;2023-07-13T13:13:48;153594.44;;;42.36;21.16
6853;BME280;3465;42.144;24.722;2023-07-13T13:18:53;153599.56;;;42.38;21.52
6853;BME280;3465;42.144;24.722;2023-07-13T13:21:19;153598.28;;;42.38;21.09
6853;BME280;3465;42.144;24.722;2023-07-13T13:23:45;153622.66;;;42.47;21.75
6853;BME280;3465;42.144;24.722;2023-07-13T13:26:13;153589.34;;;42.34;21.28
6853;BME280;3465;42.144;24.722;2023-07-13T13:28:41;153516.22;;;42.06;21.71
6853;BME280;3465;42.144;24.722;2023-07-13T13:31:07;153521.38;;;42.08;20.50
6853;BME280;3465;42.144;24.722;2023-07-13T13:33:38;153448.31;;;41.79;21.25
6853;BME280;3465;42.144;24.722;2023-07-13T13:36:13;153489.34;;;41.95;20.64
6853;BME280;3465;42.144;24.722;2023-07-13T13:38:39;153485.50;;;41.94;20.41
6853;BME280;3465;42.144;24.722;2023-07-13T13:41:05;153427.81;;;41.71;20.77
6853;BME280;3465;42.144;24.722;2023-07-13T13:43:30;153354.78;;;41.43;20.86